sensor_id;sensor_type;location;lat;lon;timestamp;pressure;altitude;pressure_sealevel;temperature;humidity
60465;BME280;46314;52.392;9.758;2023-02-22T00:00:25;100933.44;;;11.29;94.01
60465;BME280;46314;52.392;9.758;2023-02-22T00:02:55;100925.72;;;10.83;96.60
60465;BME280;46314;52.392;9.758;2023-02-22T00:05:22;100926.72;;;10.92;97.82
60465;BME280;46314;52.392;9.758;2023-02-22T00:07:48;100929.97;;;11.18;95.13
60465;BME280;46314;52.392;9.758;2023-02-22T00:10:16;100932.22;;;11.16;95.05
60465;BME280;46314;52.392;9.758;2023-02-22T00:12:43;100932.16;;;11.41;94.83
60465;BME280;46314;52.392;9.758;2023-02-22T00:15:10;100921.63;;;11.18;94.14
60465;BME280;46314;52.392;9.758;2023-02-22T00:17:36;100916.44;;;10.93;95.23
60465;BME280;46314;52.392;9.758;2023-02-22T00:20:03;100923.03;;;10.97;95.61
60465;BME280;46314;52.392;9.758;2023-02-22T00:22:29;100918.41;;;11.11;95.82
60465;BME280;46314;52.392;9.758;2023-02-22T00:24:56;100925.19;;;11.24;95.10
60465;BME280;46314;52.392;9.758;2023-02-22T00:27:24;100911.03;;;10.83;96.39
60465;BME280;46314;52.392;9.758;2023-02-22T00:29:50;100912.69;;;11.03;96.38
60465;BME280;46314;52.392;9.758;2023-02-22T00:32:16;100916.47;;;11.12;95.48
60465;BME280;46314;52.392;9.758;2023-02-22T00:34:43;100911.03;;;10.58;95.64
60465;BME280;46314;52.392;9.758;2023-02-22T00:37:10;100908.06;;;10.98;95.90
60465;BME280;46314;52.392;9.758;2023-02-22T00:39:36;100914.13;;;10.28;97.87
60465;BME280;46314;52.392;9.758;2023-02-22T00:42:02;100908.81;;;10.02;100.00
60465;BME280;46314;52.392;9.758;2023-02-22T00:44:30;100909.09;;;10.30;98.09
60465;BME280;46314;52.392;9.758;2023-02-22T00:46:57;100906.28;;;10.64;96.46
60465;BME280;46314;52.392;9.758;2023-02-22T00:49:23;100891.38;;;10.79;96.11
60465;BME280;46314;52.392;9.758;2023-02-22T00:51:49;100900.22;;;10.03;98.89
60465;BME280;46314;52.392;9.758;2023-02-22T00:54:16;100890.97;;;10.42;97.93
60465;BME280;46314;52.392;9.758;2023-02-22T00:56:42;100892.22;;;10.55;96.84
60465;BME280;46314;52.392;9.758;2023-02-22T00:59:09;100886.97;;;10.54;97.19
60465;BME280;46314;52.392;9.758;2023-02-22T01:01:36;100890.22;;;10.61;96.66
60465;BME280;46314;52.392;9.758;2023-02-22T01:04:03;100888.81;;;10.83;94.95
60465;BME280;46314;52.392;9.758;2023-02-22T01:06:30;100894.09;;;10.07;98.53
60465;BME280;46314;52.392;9.758;2023-02-22T01:08:56;100886.31;;;10.38;97.30
60465;BME280;46314;52.392;9.758;2023-02-22T01:11:23;100881.66;;;9.75;100.00
60465;BME280;46314;52.392;9.758;2023-02-22T01:13:49;100884.59;;;10.42;97.40
60465;BME280;46314;52.392;9.758;2023-02-22T01:16:16;100876.81;;;10.68;96.05
60465;BME280;46314;52.392;9.758;2023-02-22T01:18:44;100875.59;;;10.26;97.43
60465;BME280;46314;52.392;9.758;2023-02-22T01:21:10;100879.16;;;10.32;97.32
60465;BME280;46314;52.392;9.758;2023-02-22T01:23:37;100880.00;;;10.32;96.69
60465;BME280;46314;52.392;9.758;2023-02-22T01:26:04;100882.31;;;10.20;97.54
60465;BME280;46314;52.392;9.758;2023-02-22T01:28:30;100878.34;;;10.02;98.45
60465;BME280;46314;52.392;9.758;2023-02-22T01:30:57;100874.50;;;9.98;97.60
60465;BME280;46314;52.392;9.758;2023-02-22T01:33:23;100883.44;;;9.90;98.46
60465;BME280;46314;52.392;9.758;2023-02-22T01:35:51;100879.22;;;9.68;99.77
60465;BME280;46314;52.392;9.758;2023-02-22T01:38:18;100870.69;;;9.94;98.67
60465;BME280;46314;52.392;9.758;2023-02-22T01:40:47;100867.41;;;9.86;98.38
60465;BME280;46314;52.392;9.758;2023-02-22T01:43:18;100867.41;;;9.86;99.54
60465;BME280;46314;52.392;9.758;2023-02-22T01:45:57;100862.91;;;9.61;99.49
60465;BME280;46314;52.392;9.758;2023-02-22T01:48:43;100862.56;;;9.73;98.88
60465;BME280;46314;52.392;9.758;2023-02-22T01:51:14;100860.56;;;9.79;99.07
60465;BME280;46314;52.392;9.758;2023-02-22T01:53:48;100866.25;;;9.58;99.49
60465;BME280;46314;52.392;9.758;2023-02-22T01:56:17;100864.22;;;9.40;100.00
60465;BME280;46314;52.392;9.758;2023-02-22T01:58:46;100854.94;;;9.20;100.00
60465;BME280;46314;52.392;9.758;2023-02-22T02:01:14;100853.09;;;9.45;99.91
60465;BME280;46314;52.392;9.758;2023-02-22T02:03:42;100859.31;;;9.26;100.00
60465;BME280;46314;52.392;9.758;2023-02-22T02:06:13;100857.78;;;9.44;100.00
60465;BME280;46314;52.392;9.758;2023-02-22T02:08:45;100853.00;;;9.21;99.89
60465;BME280;46314;52.392;9.758;2023-02-22T02:11:13;100857.47;;;9.51;99.73
60465;BME280;46314;52.392;9.758;2023-02-22T02:13:40;100845.84;;;9.83;97.10
60465;BME280;46314;52.392;9.758;2023-02-22T02:16:06;100844.31;;;9.38;98.79
60465;BME280;46314;52.392;9.758;2023-02-22T02:18:33;100853.00;;;9.21;100.00
60465;BME280;46314;52.392;9.758;2023-02-22T02:21:17;100855.44;;;9.27;99.64
60465;BME280;46314;52.392;9.758;2023-02-22T02:27:09;100847.34;;;9.36;98.31
60465;BME280;46314;52.392;9.758;2023-02-22T02:30:03;100842.44;;;9.28;98.02
60465;BME280;46314;52.392;9.758;2023-02-22T02:32:50;100845.69;;;8.36;100.00
60465;BME280;46314;52.392;9.758;2023-02-22T02:35:21;100840.44;;;8.94;100.00
60465;BME280;46314;52.392;9.758;2023-02-22T02:37:55;100847.47;;;9.21;98.91
60465;BME280;46314;52.392;9.758;2023-02-22T02:40:29;100837.34;;;9.06;99.41
60465;BME280;46314;52.392;9.758;2023-02-22T02:43:00;100829.25;;;8.65;100.00
60465;BME280;46314;52.392;9.758;2023-02-22T02:45:34;100830.31;;;9.19;98.05
60465;BME280;46314;52.392;9.758;2023-02-22T02:48:08;100833.84;;;9.29;97.24
60465;BME280;46314;52.392;9.758;2023-02-22T02:50:41;100833.66;;;8.76;99.10
60465;BME280;46314;52.392;9.758;2023-02-22T02:53:09;100827.59;;;9.14;98.39
60465;BME280;46314;52.392;9.758;2023-02-22T02:55:36;100826.78;;;9.13;98.30
60465;BME280;46314;52.392;9.758;2023-02-22T02:58:04;100832.41;;;8.98;98.52
60465;BME280;46314;52.392;9.758;2023-02-22T03:00:33;100824.50;;;8.76;99.60
60465;BME280;46314;52.392;9.758;2023-02-22T03:03:14;100827.59;;;8.69;99.63
60465;BME280;46314;52.392;9.758;2023-02-22T03:05:56;100815.47;;;8.55;100.00
60465;BME280;46314;52.392;9.758;2023-02-22T03:08:28;100813.34;;;8.46;100.00
60465;BME280;46314;52.392;9.758;2023-02-22T03:11:04;100813.34;;;8.36;100.00
60465;BME280;46314;52.392;9.758;2023-02-22T03:13:35;100808.31;;;8.98;99.46
60465;BME280;46314;52.392;9.758;2023-02-22T03:16:11;100813.84;;;8.98;98.52
60465;BME280;46314;52.392;9.758;2023-02-22T03:18:48;100807.69;;;9.12;97.03
60465;BME280;46314;52.392;9.758;2023-02-22T03:21:22;100802.59;;;8.84;98.34
60465;BME280;46314;52.392;9.758;2023-02-22T03:23:57;100795.63;;;8.42;100.00
60465;BME280;46314;52.392;9.758;2023-02-22T03:26:29;100793.84;;;8.67;99.78
60465;BME280;46314;52.392;9.758;2023-02-22T03:28:57;100798.47;;;8.27;100.00
60465;BME280;46314;52.392;9.758;2023-02-22T03:31:28;100785.06;;;7.79;100.00
60465;BME280;46314;52.392;9.758;2023-02-22T03:33:59;100792.03;;;8.37;100.00
60465;BME280;46314;52.392;9.758;2023-02-22T03:36:30;100783.25;;;8.29;100.00
60465;BME280;46314;52.392;9.758;2023-02-22T03:38:59;100779.19;;;8.01;100.00
60465;BME280;46314;52.392;9.758;2023-02-22T03:41:28;100788.88;;;8.69;98.42
60465;BME280;46314;52.392;9.758;2023-02-22T03:44:01;100782.53;;;8.63;97.86
60465;BME280;46314;52.392;9.758;2023-02-22T03:46:30;100784.03;;;8.35;99.99
60465;BME280;46314;52.392;9.758;2023-02-22T03:49:02;100787.66;;;8.36;98.97
60465;BME280;46314;52.392;9.758;2023-02-22T03:51:30;100786.09;;;8.04;100.00
60465;BME280;46314;52.392;9.758;2023-02-22T03:53:56;100788.69;;;8.55;99.17
60465;BME280;46314;52.392;9.758;2023-02-22T03:56:27;100785.50;;;8.77;96.99
60465;BME280;46314;52.392;9.758;2023-02-22T03:58:55;100787.91;;;8.39;97.70
60465;BME280;46314;52.392;9.758;2023-02-22T04:01:21;100777.13;;;8.38;98.21
60465;BME280;46314;52.392;9.758;2023-02-22T04:03:48;100775.94;;;7.89;100.00
60465;BME280;46314;52.392;9.758;2023-02-22T04:06:16;100771.50;;;7.83;100.00
60465;BME280;46314;52.392;9.758;2023-02-22T04:08:42;100778.03;;;8.12;99.83
60465;BME280;46314;52.392;9.758;2023-02-22T04:11:08;100770.00;;;8.21;99.23
60465;BME280;46314;52.392;9.758;2023-02-22T04:13:35;100771.56;;;7.62;100.00
60465;BME280;46314;52.392;9.758;2023-02-22T04:16:01;100773.69;;;7.96;100.00
60465;BME280;46314;52.392;9.758;2023-02-22T04:18:28;100770.19;;;8.50;98.21
60465;BME280;46314;52.392;9.758;2023-02-22T04:20:54;100770.84;;;8.77;96.50
60465;BME280;46314;52.392;9.758;2023-02-22T04:23:22;100764.34;;;8.57;96.07
60465;BME280;46314;52.392;9.758;2023-02-22T04:25:48;100759.06;;;8.01;99.09
60465;BME280;46314;52.392;9.758;2023-02-22T04:28:15;100764.19;;;8.28;98.89
60465;BME280;46314;52.392;9.758;2023-02-22T04:30:41;100757.66;;;8.03;100.00
60465;BME280;46314;52.392;9.758;2023-02-22T04:33:08;100749.53;;;7.42;100.00
60465;BME280;46314;52.392;9.758;2023-02-22T04:35:34;100748.16;;;6.82;100.00
60465;BME280;46314;52.392;9.758;2023-02-22T04:38:01;100756.44;;;6.72;100.00
60465;BME280;46314;52.392;9.758;2023-02-22T04:40:29;100760.28;;;7.43;100.00
60465;BME280;46314;52.392;9.758;2023-02-22T04:42:55;100756.09;;;7.66;100.00
60465;BME280;46314;52.392;9.758;2023-02-22T04:45:22;100761.97;;;8.25;100.00
60465;BME280;46314;52.392;9.758;2023-02-22T04:47:48;100767.41;;;8.50;98.87
60465;BME280;46314;52.392;9.758;2023-02-22T04:52:41;100763.34;;;8.27;99.34
60465;BME280;46314;52.392;9.758;2023-02-22T04:55:08;100763.78;;;8.60;97.49
60465;BME280;46314;52.392;9.758;2023-02-22T04:57:36;100768.41;;;8.70;96.62
60465;BME280;46314;52.392;9.758;2023-02-22T05:00:03;100759.69;;;8.47;96.70
60465;BME280;46314;52.392;9.758;2023-02-22T05:02:30;100758.94;;;8.26;98.80
60465;BME280;46314;52.392;9.758;2023-02-22T05:04:56;100764.25;;;8.73;96.97
60465;BME280;46314;52.392;9.758;2023-02-22T05:07:23;100761.06;;;8.89;96.10
60465;BME280;46314;52.392;9.758;2023-02-22T05:09:49;100757.41;;;8.99;95.82
60465;BME280;46314;52.392;9.758;2023-02-22T05:12:16;100758.56;;;9.27;93.94
60465;BME280;46314;52.392;9.758;2023-02-22T05:14:43;100766.63;;;8.45;99.09
60465;BME280;46314;52.392;9.758;2023-02-22T05:17:10;100752.91;;;8.14;99.31
60465;BME280;46314;52.392;9.758;2023-02-22T05:19:36;100755.84;;;8.83;97.85
60465;BME280;46314;52.392;9.758;2023-02-22T05:22:03;100745.28;;;7.85;100.00
60465;BME280;46314;52.392;9.758;2023-02-22T05:24:29;100750.19;;;8.64;99.69
60465;BME280;46314;52.392;9.758;2023-02-22T05:26:56;100745.50;;;8.99;96.35
60465;BME280;46314;52.392;9.758;2023-02-22T05:29:22;100740.69;;;7.50;100.00
60465;BME280;46314;52.392;9.758;2023-02-22T05:31:50;100736.28;;;7.44;100.00
60465;BME280;46314;52.392;9.758;2023-02-22T05:34:17;100742.38;;;7.35;100.00
60465;BME280;46314;52.392;9.758;2023-02-22T05:36:43;100734.09;;;6.84;100.00
60465;BME280;46314;52.392;9.758;2023-02-22T05:39:10;100733.81;;;7.22;100.00
60465;BME280;46314;52.392;9.758;2023-02-22T05:41:36;100736.78;;;7.56;100.00
60465;BME280;46314;52.392;9.758;2023-02-22T05:44:03;100738.31;;;7.98;100.00
60465;BME280;46314;52.392;9.758;2023-02-22T05:46:30;100734.22;;;7.95;100.00
60465;BME280;46314;52.392;9.758;2023-02-22T05:48:57;100739.19;;;7.99;100.00
60465;BME280;46314;52.392;9.758;2023-02-22T05:51:24;100730.97;;;7.68;100.00
60465;BME280;46314;52.392;9.758;2023-02-22T05:53:50;100734.44;;;8.04;100.00
60465;BME280;46314;52.392;9.758;2023-02-22T05:56:20;100736.09;;;8.05;99.52
60465;BME280;46314;52.392;9.758;2023-02-22T05:58:46;100723.25;;;7.70;100.00
60465;BME280;46314;52.392;9.758;2023-02-22T06:01:13;100725.31;;;8.04;100.00
60465;BME280;46314;52.392;9.758;2023-02-22T06:03:39;100716.47;;;6.95;100.00
60465;BME280;46314;52.392;9.758;2023-02-22T06:06:07;100718.13;;;6.91;100.00
60465;BME280;46314;52.392;9.758;2023-02-22T06:08:33;100722.50;;;6.82;100.00
60465;BME280;46314;52.392;9.758;2023-02-22T06:11:00;100721.66;;;7.38;100.00
60465;BME280;46314;52.392;9.758;2023-02-22T06:13:26;100720.00;;;8.18;100.00
60465;BME280;46314;52.392;9.758;2023-02-22T06:15:52;100724.16;;;7.29;100.00
60465;BME280;46314;52.392;9.758;2023-02-22T06:18:19;100725.25;;;7.38;100.00
60465;BME280;46314;52.392;9.758;2023-02-22T06:20:45;100723.59;;;7.37;100.00
60465;BME280;46314;52.392;9.758;2023-02-22T06:23:13;100719.22;;;6.95;100.00
60465;BME280;46314;52.392;9.758;2023-02-22T06:25:40;100720.25;;;6.43;100.00
60465;BME280;46314;52.392;9.758;2023-02-22T06:28:06;100718.09;;;7.22;100.00
60465;BME280;46314;52.392;9.758;2023-02-22T06:30:32;100713.13;;;7.14;100.00
60465;BME280;46314;52.392;9.758;2023-02-22T06:32:59;100724.06;;;7.70;100.00
60465;BME280;46314;52.392;9.758;2023-02-22T06:35:25;100718.06;;;7.43;100.00
60465;BME280;46314;52.392;9.758;2023-02-22T06:37:52;100717.31;;;8.07;100.00
60465;BME280;46314;52.392;9.758;2023-02-22T06:40:20;100720.16;;;7.87;100.00
60465;BME280;46314;52.392;9.758;2023-02-22T06:42:47;100719.50;;;6.89;100.00
60465;BME280;46314;52.392;9.758;2023-02-22T06:45:15;100714.78;;;6.84;100.00
60465;BME280;46314;52.392;9.758;2023-02-22T06:47:42;100722.53;;;7.18;100.00
60465;BME280;46314;52.392;9.758;2023-02-22T06:50:18;100720.72;;;7.78;100.00
60465;BME280;46314;52.392;9.758;2023-02-22T06:52:44;100719.34;;;7.86;100.00
60465;BME280;46314;52.392;9.758;2023-02-22T06:55:11;100717.97;;;7.78;100.00
60465;BME280;46314;52.392;9.758;2023-02-22T06:57:38;100721.22;;;8.51;99.80
60465;BME280;46314;52.392;9.758;2023-02-22T07:00:06;100726.38;;;8.68;97.35
60465;BME280;46314;52.392;9.758;2023-02-22T07:02:32;100719.72;;;8.19;99.11
60465;BME280;46314;52.392;9.758;2023-02-22T07:04:59;100720.50;;;7.59;100.00
60465;BME280;46314;52.392;9.758;2023-02-22T07:07:25;100726.22;;;8.94;98.90
60465;BME280;46314;52.392;9.758;2023-02-22T07:09:52;100718.56;;;8.80;96.57
60465;BME280;46314;52.392;9.758;2023-02-22T07:12:18;100724.19;;;9.04;95.51
60465;BME280;46314;52.392;9.758;2023-02-22T07:14:46;100729.06;;;9.13;96.05
60465;BME280;46314;52.392;9.758;2023-02-22T07:17:12;100722.13;;;9.44;94.86
60465;BME280;46314;52.392;9.758;2023-02-22T07:19:39;100721.34;;;9.68;93.84
60465;BME280;46314;52.392;9.758;2023-02-22T07:22:05;100720.06;;;9.60;93.70
60465;BME280;46314;52.392;9.758;2023-02-22T07:24:32;100722.75;;;9.90;92.37
60465;BME280;46314;52.392;9.758;2023-02-22T07:26:59;100714.53;;;9.60;93.70
60465;BME280;46314;52.392;9.758;2023-02-22T07:29:26;100717.69;;;9.97;92.33
60465;BME280;46314;52.392;9.758;2023-02-22T07:31:54;100719.00;;;9.80;93.10
60465;BME280;46314;52.392;9.758;2023-02-22T07:34:21;100723.44;;;9.23;97.42
60465;BME280;46314;52.392;9.758;2023-02-22T07:36:47;100716.25;;;9.51;95.83
60465;BME280;46314;52.392;9.758;2023-02-22T07:39:14;100707.75;;;10.15;92.31
60465;BME280;46314;52.392;9.758;2023-02-22T07:41:40;100711.09;;;10.36;90.69
60465;BME280;46314;52.392;9.758;2023-02-22T07:44:07;100711.00;;;10.22;91.71
60465;BME280;46314;52.392;9.758;2023-02-22T07:46:33;100706.56;;;10.21;91.90
60465;BME280;46314;52.392;9.758;2023-02-22T07:49:01;100709.69;;;10.38;91.56
60465;BME280;46314;52.392;9.758;2023-02-22T07:51:27;100720.13;;;10.22;91.24
60465;BME280;46314;52.392;9.758;2023-02-22T07:53:53;100718.31;;;10.13;92.39
60465;BME280;46314;52.392;9.758;2023-02-22T07:56:20;100708.66;;;9.86;95.66
60465;BME280;46314;52.392;9.758;2023-02-22T07:58:46;100709.25;;;10.50;93.28
60465;BME280;46314;52.392;9.758;2023-02-22T08:01:13;100710.34;;;10.68;91.22
60465;BME280;46314;52.392;9.758;2023-02-22T08:03:39;100707.28;;;10.51;91.78
60465;BME280;46314;52.392;9.758;2023-02-22T08:06:07;100708.38;;;10.88;91.89
60465;BME280;46314;52.392;9.758;2023-02-22T08:08:33;100702.31;;;10.86;90.53
60465;BME280;46314;52.392;9.758;2023-02-22T08:11:00;100701.97;;;10.54;96.31
60465;BME280;46314;52.392;9.758;2023-02-22T08:13:27;100703.78;;;10.64;96.01
60465;BME280;46314;52.392;9.758;2023-02-22T08:15:53;100700.22;;;10.39;96.55
60465;BME280;46314;52.392;9.758;2023-02-22T08:18:21;100706.19;;;11.04;92.83
60465;BME280;46314;52.392;9.758;2023-02-22T08:20:49;100701.88;;;11.11;92.06
60465;BME280;46314;52.392;9.758;2023-02-22T08:23:19;100706.44;;;11.21;93.61
60465;BME280;46314;52.392;9.758;2023-02-22T08:25:45;100702.47;;;10.56;96.29
60465;BME280;46314;52.392;9.758;2023-02-22T08:28:14;100697.03;;;10.08;97.75
60465;BME280;46314;52.392;9.758;2023-02-22T08:30:41;100701.97;;;10.11;99.56
60465;BME280;46314;52.392;9.758;2023-02-22T08:33:08;100696.44;;;10.11;99.67
60465;BME280;46314;52.392;9.758;2023-02-22T08:35:35;100701.13;;;10.35;98.72
60465;BME280;46314;52.392;9.758;2023-02-22T08:38:04;100697.81;;;11.23;95.30
60465;BME280;46314;52.392;9.758;2023-02-22T08:40:34;100695.88;;;11.04;95.04
60465;BME280;46314;52.392;9.758;2023-02-22T08:43:01;100691.47;;;11.64;92.23
60465;BME280;46314;52.392;9.758;2023-02-22T08:45:28;100683.06;;;10.75;96.71
60465;BME280;46314;52.392;9.758;2023-02-22T08:47:54;100693.03;;;10.76;96.45
60465;BME280;46314;52.392;9.758;2023-02-22T08:50:23;100689.97;;;11.71;92.58
60465;BME280;46314;52.392;9.758;2023-02-22T08:52:50;100688.31;;;11.98;90.98
60465;BME280;46314;52.392;9.758;2023-02-22T08:55:18;100679.75;;;11.67;91.16
60465;BME280;46314;52.392;9.758;2023-02-22T08:57:46;100682.09;;;11.46;92.94
60465;BME280;46314;52.392;9.758;2023-02-22T09:00:14;100677.78;;;10.93;94.41
60465;BME280;46314;52.392;9.758;2023-02-22T09:02:40;100681.66;;;10.59;97.73
60465;BME280;46314;52.392;9.758;2023-02-22T09:05:07;100685.22;;;11.11;96.47
60465;BME280;46314;52.392;9.758;2023-02-22T09:07:33;100688.19;;;11.62;92.40
60465;BME280;46314;52.392;9.758;2023-02-22T09:10:00;100681.25;;;10.66;97.47
60465;BME280;46314;52.392;9.758;2023-02-22T09:12:26;100677.28;;;11.79;92.26
60465;BME280;46314;52.392;9.758;2023-02-22T09:14:54;100679.59;;;10.84;95.93
60465;BME280;46314;52.392;9.758;2023-02-22T09:17:20;100680.38;;;11.64;93.30
60465;BME280;46314;52.392;9.758;2023-02-22T09:19:47;100681.50;;;11.90;91.31
60465;BME280;46314;52.392;9.758;2023-02-22T09:22:13;100674.31;;;11.75;93.40
60465;BME280;46314;52.392;9.758;2023-02-22T09:24:39;100677.22;;;11.98;93.34
60465;BME280;46314;52.392;9.758;2023-02-22T09:27:06;100668.03;;;11.56;94.37
60465;BME280;46314;52.392;9.758;2023-02-22T09:29:32;100672.34;;;11.62;92.81
60465;BME280;46314;52.392;9.758;2023-02-22T09:32:00;100672.63;;;11.88;90.77
60465;BME280;46314;52.392;9.758;2023-02-22T09:34:27;100669.78;;;11.93;92.89
60465;BME280;46314;52.392;9.758;2023-02-22T09:36:54;100669.22;;;11.36;94.08
60465;BME280;46314;52.392;9.758;2023-02-22T09:39:20;100670.44;;;12.27;91.08
60465;BME280;46314;52.392;9.758;2023-02-22T09:41:52;100666.06;;;11.84;92.84
60465;BME280;46314;52.392;9.758;2023-02-22T09:44:24;100667.69;;;11.85;91.81
60465;BME280;46314;52.392;9.758;2023-02-22T09:46:53;100670.03;;;12.34;90.86
60465;BME280;46314;52.392;9.758;2023-02-22T09:49:23;100669.81;;;12.66;87.91
60465;BME280;46314;52.392;9.758;2023-02-22T09:51:56;100674.78;;;12.33;89.32
60465;BME280;46314;52.392;9.758;2023-02-22T09:54:28;100668.19;;;12.15;89.61
60465;BME280;46314;52.392;9.758;2023-02-22T09:57:01;100672.34;;;12.04;90.67
60465;BME280;46314;52.392;9.758;2023-02-22T09:59:33;100671.22;;;13.00;87.22
60465;BME280;46314;52.392;9.758;2023-02-22T10:02:04;100664.78;;;13.22;85.75
60465;BME280;46314;52.392;9.758;2023-02-22T10:04:44;100661.81;;;12.96;85.38
60465;BME280;46314;52.392;9.758;2023-02-22T10:07:17;100672.41;;;12.85;86.72
60465;BME280;46314;52.392;9.758;2023-02-22T10:09:48;100668.91;;;13.25;86.04
60465;BME280;46314;52.392;9.758;2023-02-22T10:12:23;100656.31;;;13.05;85.56
60465;BME280;46314;52.392;9.758;2023-02-22T10:15:09;100655.69;;;12.40;88.60
60465;BME280;46314;52.392;9.758;2023-02-22T10:17:50;100643.97;;;13.20;84.67
60465;BME280;46314;52.392;9.758;2023-02-22T10:20:31;100637.06;;;13.49;81.76
60465;BME280;46314;52.392;9.758;2023-02-22T10:23:10;100636.69;;;13.81;81.32
60465;BME280;46314;52.392;9.758;2023-02-22T10:25:41;100638.78;;;13.67;80.80
60465;BME280;46314;52.392;9.758;2023-02-22T10:28:13;100637.91;;;12.50;87.75
60465;BME280;46314;52.392;9.758;2023-02-22T10:30:43;100636.00;;;12.50;88.23
60465;BME280;46314;52.392;9.758;2023-02-22T10:33:14;100618.66;;;13.88;80.84
60465;BME280;46314;52.392;9.758;2023-02-22T10:35:44;100613.06;;;13.70;80.31
60465;BME280;46314;52.392;9.758;2023-02-22T10:38:16;100622.53;;;13.29;83.17
60465;BME280;46314;52.392;9.758;2023-02-22T10:40:45;100616.69;;;13.88;81.75
60465;BME280;46314;52.392;9.758;2023-02-22T10:43:13;100617.84;;;13.96;80.31
60465;BME280;46314;52.392;9.758;2023-02-22T10:45:40;100614.97;;;13.61;81.89
60465;BME280;46314;52.392;9.758;2023-02-22T10:48:09;100614.78;;;12.41;88.14
60465;BME280;46314;52.392;9.758;2023-02-22T10:50:38;100611.53;;;13.24;84.57
60465;BME280;46314;52.392;9.758;2023-02-22T10:53:07;100606.38;;;13.08;86.02
60465;BME280;46314;52.392;9.758;2023-02-22T10:55:34;100600.31;;;12.75;87.05
60465;BME280;46314;52.392;9.758;2023-02-22T10:58:02;100597.75;;;13.19;84.12
60465;BME280;46314;52.392;9.758;2023-02-22T11:00:31;100594.59;;;14.44;78.69
60465;BME280;46314;52.392;9.758;2023-02-22T11:02:59;100598.19;;;14.36;79.09
60465;BME280;46314;52.392;9.758;2023-02-22T11:05:29;100601.31;;;14.26;78.19
60465;BME280;46314;52.392;9.758;2023-02-22T11:08:24;100592.63;;;14.36;77.30
60465;BME280;46314;52.392;9.758;2023-02-22T11:10:53;100593.44;;;14.10;77.66
60465;BME280;46314;52.392;9.758;2023-02-22T11:13:24;100585.81;;;13.27;82.83
60465;BME280;46314;52.392;9.758;2023-02-22T11:15:52;100577.38;;;13.41;82.59
60465;BME280;46314;52.392;9.758;2023-02-22T11:18:24;100587.84;;;14.45;77.94
60465;BME280;46314;52.392;9.758;2023-02-22T11:20:59;100580.81;;;14.74;75.90
60465;BME280;46314;52.392;9.758;2023-02-22T11:23:27;100584.91;;;14.42;78.28
60465;BME280;46314;52.392;9.758;2023-02-22T11:26:01;100581.06;;;14.99;75.76
60465;BME280;46314;52.392;9.758;2023-02-22T11:28:29;100569.13;;;15.19;73.96
60465;BME280;46314;52.392;9.758;2023-02-22T11:30:56;100568.78;;;14.82;74.90
60465;BME280;46314;52.392;9.758;2023-02-22T11:33:25;100562.25;;;14.08;79.43
60465;BME280;46314;52.392;9.758;2023-02-22T11:35:53;100570.19;;;12.77;86.62
60465;BME280;46314;52.392;9.758;2023-02-22T11:38:22;100557.97;;;14.46;78.56
60465;BME280;46314;52.392;9.758;2023-02-22T11:41:06;100555.66;;;13.20;84.58
60465;BME280;46314;52.392;9.758;2023-02-22T11:43:33;100553.19;;;13.68;82.94
60465;BME280;46314;52.392;9.758;2023-02-22T11:46:02;100546.47;;;13.20;85.21
60465;BME280;46314;52.392;9.758;2023-02-22T11:48:31;100549.72;;;13.53;83.73
60465;BME280;46314;52.392;9.758;2023-02-22T11:51:08;100540.56;;;14.40;80.75
60465;BME280;46314;52.392;9.758;2023-02-22T11:53:53;100549.03;;;14.87;75.39
60465;BME280;46314;52.392;9.758;2023-02-22T11:56:29;100551.09;;;14.34;76.97
60465;BME280;46314;52.392;9.758;2023-02-22T11:59:14;100543.97;;;14.81;75.88
60465;BME280;46314;52.392;9.758;2023-02-22T12:01:48;100541.72;;;14.56;77.28
60465;BME280;46314;52.392;9.758;2023-02-22T12:04:46;100536.78;;;14.71;68.88
60465;BME280;46314;52.392;9.758;2023-02-22T12:07:33;100538.91;;;15.12;63.76
60465;BME280;46314;52.392;9.758;2023-02-22T12:10:14;100542.06;;;14.64;65.59
60465;BME280;46314;52.392;9.758;2023-02-22T12:12:56;100538.06;;;14.82;64.87
60465;BME280;46314;52.392;9.758;2023-02-22T12:15:29;100532.03;;;15.10;62.93
60465;BME280;46314;52.392;9.758;2023-02-22T12:18:00;100527.38;;;14.84;63.73
60465;BME280;46314;52.392;9.758;2023-02-22T12:20:33;100524.50;;;15.40;61.61
60465;BME280;46314;52.392;9.758;2023-02-22T12:23:05;100519.13;;;13.97;65.82
60465;BME280;46314;52.392;9.758;2023-02-22T12:25:36;100511.97;;;14.78;63.74
60465;BME280;46314;52.392;9.758;2023-02-22T12:28:14;100525.31;;;15.11;62.66
60465;BME280;46314;52.392;9.758;2023-02-22T12:30:53;100516.47;;;14.35;65.22
60465;BME280;46314;52.392;9.758;2023-02-22T12:33:26;100515.38;;;14.84;63.78
60465;BME280;46314;52.392;9.758;2023-02-22T12:35:54;100518.41;;;14.61;64.57
60465;BME280;46314;52.392;9.758;2023-02-22T12:38:27;100511.47;;;14.76;63.47
60465;BME280;46314;52.392;9.758;2023-02-22T12:40:57;100515.53;;;15.56;60.58
60465;BME280;46314;52.392;9.758;2023-02-22T12:43:29;100506.25;;;14.66;64.09
60465;BME280;46314;52.392;9.758;2023-02-22T12:46:02;100505.53;;;14.86;62.67
60465;BME280;46314;52.392;9.758;2023-02-22T12:48:41;100501.28;;;14.80;63.06
60465;BME280;46314;52.392;9.758;2023-02-22T12:51:18;100505.59;;;14.69;64.44
60465;BME280;46314;52.392;9.758;2023-02-22T12:53:52;100502.81;;;14.60;64.53
60465;BME280;46314;52.392;9.758;2023-02-22T12:56:24;100494.72;;;14.76;63.80
60465;BME280;46314;52.392;9.758;2023-02-22T12:58:59;100494.44;;;13.38;69.40
60465;BME280;46314;52.392;9.758;2023-02-22T13:01:28;100491.38;;;14.09;66.19
60465;BME280;46314;52.392;9.758;2023-02-22T13:03:58;100488.91;;;13.64;67.45
60465;BME280;46314;52.392;9.758;2023-02-22T13:06:43;100484.81;;;15.47;61.34
60465;BME280;46314;52.392;9.758;2023-02-22T13:09:32;100481.31;;;14.99;62.18